Time;durP1;ratioP1;P1;durP2;ratioP2;P2;SDS_P1;SDS_P2;PMS_P1;PMS_P2;Temp;Humidity;BMP_temperature;BMP_pressure;BME280_temperature;BME280_humidity;BME280_pressure;Samples;Min_cycle;Max_cycle;Signal;HPM_P1;HPM_P2
2021/12/11 00:01:46;;;;;;;;;;;;;;;-144.99;100.00;52686.59;5118393;27;19976;-65
2021/12/11 00:04:15;;;;;;;;;;;;;;;-144.99;100.00;52656.00;5114086;27;20008;-66
2021/12/11 00:06:44;;;;;;;;;;;;;;;-144.99;100.00;52653.97;5110143;27;20348;-65
2021/12/11 00:09:13;;;;;;;;;;;;;;;-144.99;100.00;52696.78;5117963;27;19972;-64
2021/12/11 00:11:41;;;;;;;;;;;;;;;-144.99;100.00;52696.78;5120699;27;20006;-65
2021/12/11 00:14:08;;;;;;;;;;;;;;;-144.99;100.00;52656.00;5109267;28;20000;-65
2021/12/11 00:16:37;;;;;;;;;;;;;;;-144.99;100.00;52711.03;5119458;28;19977;-65
2021/12/11 00:19:05;;;;;;;;;;;;;;;-144.99;100.00;52668.22;5121296;27;19990;-65
2021/12/11 00:21:32;;;;;;;;;;;;;;;-144.99;100.00;52688.63;5137292;27;19986;-66
2021/12/11 00:24:02;;;;;;;;;;;;;;;-144.99;100.00;52684.53;5120490;27;20095;-65
2021/12/11 00:26:29;;;;;;;;;;;;;;;-144.99;100.00;52664.16;5130560;27;19982;-66
2021/12/11 00:28:56;;;;;;;;;;;;;;;-144.99;100.00;52680.47;5125391;27;20043;-65
2021/12/11 00:31:23;;;;;;;;;;;;;;;-144.99;100.00;52700.84;5117932;27;20449;-65
2021/12/11 00:33:51;;;;;;;;;;;;;;;-144.99;100.00;52643.78;5117917;27;19991;-64
2021/12/11 00:36:18;;;;;;;;;;;;;;;-144.99;100.00;52664.16;5119699;27;19972;-64
2021/12/11 00:38:47;;;;;;;;;;;;;;;-144.99;100.00;52688.63;5114639;27;19980;-66
2021/12/11 00:41:15;;;;;;;;;;;;;;;-144.99;100.00;52672.31;5109500;28;19988;-64
2021/12/11 00:43:42;;;;;;;;;;;;;;;-144.99;100.00;52717.16;5109725;28;19996;-66
2021/12/11 00:46:10;;;;;;;;;;;;;;;-144.99;100.00;52676.38;5116890;27;19988;-65
2021/12/11 00:48:37;;;;;;;;;;;;;;;-144.99;100.00;52713.09;5121963;27;20352;-65
2021/12/11 00:51:06;;;;;;;;;;;;;;;-144.99;100.00;52656.00;4759066;27;10000190;-64
2021/12/11 00:53:36;;;;;;;;;;;;;;;-144.99;100.00;52664.16;5108630;28;20000;-64
2021/12/11 00:56:06;;;;;;;;;;;;;;;-144.99;100.00;52668.22;5109184;28;20480;-65
2021/12/11 00:58:33;;;;;;;;;;;;;;;-144.99;100.00;52668.22;5116081;27;20497;-64
2021/12/11 01:01:02;;;;;;;;;;;;;;;-144.99;100.00;52658.03;5150865;27;20050;-65
2021/12/11 01:03:31;;;;;;;;;;;;;;;-144.99;100.00;52674.34;5131760;27;20095;-65
2021/12/11 01:05:59;;;;;;;;;;;;;;;-144.99;100.00;52651.94;5142623;27;19998;-65
2021/12/11 01:08:31;;;;;;;;;;;;;;;-144.99;100.00;52668.22;5138869;27;19976;-65
2021/12/11 01:11:00;;;;;;;;;;;;;;;-144.99;100.00;52647.84;5129726;28;19980;-65
2021/12/11 01:13:32;;;;;;;;;;;;;;;-144.99;100.00;52664.16;5144071;27;20122;-69
2021/12/11 01:16:05;;;;;;;;;;;;;;;-144.99;100.00;52633.59;5138081;27;20084;-69
2021/12/11 01:18:37;;;;;;;;;;;;;;;-144.99;100.00;52668.22;5136306;27;19990;-69
2021/12/11 01:21:14;;;;;;;;;;;;;;;-144.99;100.00;52704.94;5133653;27;20464;-69
2021/12/11 01:24:07;;;;;;;;;;;;;;;-144.99;100.00;52670.28;5130829;27;19995;-65
2021/12/11 01:26:34;;;;;;;;;;;;;;;-144.99;100.00;52704.94;5121047;28;20487;-64
2021/12/11 01:29:00;;;;;;;;;;;;;;;-144.99;100.00;52680.47;5127158;27;19975;-64
2021/12/11 01:31:28;;;;;;;;;;;;;;;-144.99;100.00;52676.38;5111609;28;19980;-64
2021/12/11 01:33:55;;;;;;;;;;;;;;;-144.99;100.00;52680.47;5110778;28;19996;-64
2021/12/11 01:36:22;;;;;;;;;;;;;;;-144.99;100.00;52682.50;5122779;28;19975;-64
2021/12/11 01:38:53;;;;;;;;;;;;;;;-144.99;100.00;52647.84;5123208;27;19971;-63
2021/12/11 01:41:20;;;;;;;;;;;;;;;-144.99;100.00;52696.78;5111210;28;19980;-64
2021/12/11 01:43:49;;;;;;;;;;;;;;;-144.99;100.00;52651.94;5110780;28;20483;-63
2021/12/11 01:46:15;;;;;;;;;;;;;;;-144.99;100.00;52680.47;5123100;28;20339;-64
2021/12/11 01:48:43;;;;;;;;;;;;;;;-144.99;100.00;52684.53;5126630;27;19976;-64
2021/12/11 01:51:11;;;;;;;;;;;;;;;-144.99;100.00;52653.97;5110894;28;19980;-64
2021/12/11 01:53:39;;;;;;;;;;;;;;;-144.99;100.00;52692.69;5110399;28;20372;-64
2021/12/11 01:56:08;;;;;;;;;;;;;;;-144.99;100.00;52662.13;5121417;27;19987;-63
2021/12/11 01:58:37;;;;;;;;;;;;;;;-144.99;100.00;52668.22;5121121;27;20360;-64
2021/12/11 02:01:09;;;;;;;;;;;;;;;-144.99;100.00;52688.63;5121095;28;19979;-64
2021/12/11 02:03:36;;;;;;;;;;;;;;;-144.99;100.00;52706.97;5120571;27;19996;-64
2021/12/11 02:06:02;;;;;;;;;;;;;;;-144.99;100.00;52711.03;5117394;28;19992;-63
2021/12/11 02:08:30;;;;;;;;;;;;;;;-144.99;100.00;52686.59;5124316;28;20440;-64
2021/12/11 02:10:57;;;;;;;;;;;;;;;-144.99;100.00;52709.00;5128114;27;19978;-63
2021/12/11 02:13:37;;;;;;;;;;;;;;;-144.99;100.00;52694.72;5110630;28;20329;-64
2021/12/11 02:16:04;;;;;;;;;;;;;;;-144.99;100.00;52660.09;5111093;28;20420;-66
2021/12/11 02:18:35;;;;;;;;;;;;;;;-144.99;100.00;52692.69;5119537;28;19982;-65
2021/12/11 02:21:06;;;;;;;;;;;;;;;-144.99;100.00;52643.78;5128255;27;19976;-65
2021/12/11 02:23:34;;;;;;;;;;;;;;;-144.99;100.00;52698.81;5114261;28;19986;-64
2021/12/11 02:26:02;;;;;;;;;;;;;;;-144.99;100.00;52664.16;5125527;27;20237;-64
2021/12/11 02:28:31;;;;;;;;;;;;;;;-144.99;100.00;52678.44;5129442;27;19976;-64
2021/12/11 02:31:04;;;;;;;;;;;;;;;-144.99;100.00;52660.09;5128035;27;19996;-64
2021/12/11 02:33:33;;;;;;;;;;;;;;;-144.99;100.00;52615.25;5129377;27;19995;-64
2021/12/11 02:36:07;;;;;;;;;;;;;;;-144.99;100.00;52678.44;5123755;27;19987;-64
2021/12/11 02:38:38;;;;;;;;;;;;;;;-144.99;100.00;52688.63;5121000;27;20053;-64
2021/12/11 02:41:08;;;;;;;;;;;;;;;-144.99;100.00;52651.94;5126961;27;19976;-64
2021/12/11 02:43:38;;;;;;;;;;;;;;;-144.99;100.00;52680.47;5128678;27;20225;-64
2021/12/11 02:46:08;;;;;;;;;;;;;;;-144.99;100.00;52668.22;5134861;27;20031;-64
2021/12/11 02:48:36;;;;;;;;;;;;;;;-144.99;100.00;52651.94;5130501;27;19972;-64
2021/12/11 02:51:06;;;;;;;;;;;;;;;-144.99;100.00;52656.00;5126770;27;19976;-63
2021/12/11 02:53:33;;;;;;;;;;;;;;;-144.99;100.00;52660.09;5116994;27;20660;-63
2021/12/11 02:56:05;;;;;;;;;;;;;;;-144.99;100.00;52647.84;5124776;27;19943;-65
2021/12/11 02:58:33;;;;;;;;;;;;;;;-144.99;100.00;52676.38;5126831;27;20003;-63
2021/12/11 03:01:04;;;;;;;;;;;;;;;-144.99;100.00;52658.03;5114228;27;20007;-63
2021/12/11 03:03:35;;;;;;;;;;;;;;;-144.99;100.00;52668.22;5113733;28;20001;-63
2021/12/11 03:06:13;;;;;;;;;;;;;;;-144.99;100.00;52692.69;5117240;27;19996;-63
2021/12/11 03:08:41;;;;;;;;;;;;;;;-144.99;100.00;52668.22;5144684;27;20444;-63
2021/12/11 03:11:11;;;;;;;;;;;;;;;-144.99;100.00;52676.38;5148765;27;20004;-63
2021/12/11 03:13:39;;;;;;;;;;;;;;;-144.99;100.00;52696.78;5142668;27;20355;-63
2021/12/11 03:16:06;;;;;;;;;;;;;;;-144.99;100.00;52660.09;5128179;27;19980;-63
2021/12/11 03:18:33;;;;;;;;;;;;;;;-144.99;100.00;52662.13;5125503;27;19975;-63
2021/12/11 03:20:59;;;;;;;;;;;;;;;-144.99;100.00;52668.22;5128877;27;20074;-63
2021/12/11 03:23:26;;;;;;;;;;;;;;;-144.99;100.00;52680.47;5113398;28;20335;-63
2021/12/11 03:25:53;;;;;;;;;;;;;;;-144.99;100.00;52696.78;5122416;27;19999;-62
2021/12/11 03:28:21;;;;;;;;;;;;;;;-144.99;100.00;52688.63;5123083;27;20213;-66
2021/12/11 03:30:51;;;;;;;;;;;;;;;-144.99;100.00;52668.22;5117523;27;20348;-65
2021/12/11 03:33:19;;;;;;;;;;;;;;;-144.99;100.00;52664.16;5112612;28;19999;-65
2021/12/11 03:35:45;;;;;;;;;;;;;;;-144.99;100.00;52656.00;5117640;27;19972;-66
2021/12/11 03:38:13;;;;;;;;;;;;;;;-144.99;100.00;52688.63;5118528;27;19984;-65
2021/12/11 03:40:40;;;;;;;;;;;;;;;-144.99;100.00;52676.38;5124687;27;19995;-65
2021/12/11 03:43:09;;;;;;;;;;;;;;;-144.99;100.00;52680.47;5122085;27;20368;-65
2021/12/11 03:45:37;;;;;;;;;;;;;;;-144.99;100.00;52684.53;5127087;27;20280;-65
2021/12/11 03:48:06;;;;;;;;;;;;;;;-144.99;100.00;52696.78;5138862;27;19974;-66
2021/12/11 03:50:32;;;;;;;;;;;;;;;-144.99;100.00;52688.63;5147058;27;20027;-67
2021/12/11 03:52:59;;;;;;;;;;;;;;;-144.99;100.00;52664.16;5149625;27;20052;-64
2021/12/11 03:55:27;;;;;;;;;;;;;;;-144.99;100.00;52641.72;5126290;27;19984;-64
2021/12/11 03:57:58;;;;;;;;;;;;;;;-144.99;100.00;52639.69;5126236;27;19979;-63
2021/12/11 04:00:25;;;;;;;;;;;;;;;-144.99;100.00;52704.94;5129752;27;19980;-63
2021/12/11 04:03:02;;;;;;;;;;;;;;;-144.99;100.00;52694.72;5125186;27;19972;-63
2021/12/11 04:05:28;;;;;;;;;;;;;;;-144.99;100.00;52668.22;5118456;27;20048;-63
2021/12/11 04:07:56;;;;;;;;;;;;;;;-144.99;100.00;52672.31;5112759;28;19987;-63
2021/12/11 04:10:23;;;;;;;;;;;;;;;-144.99;100.00;52680.47;5112750;28;19980;-62
2021/12/11 04:12:50;;;;;;;;;;;;;;;-144.99;100.00;52664.16;5123073;27;19986;-63
2021/12/11 04:15:17;;;;;;;;;;;;;;;-144.99;100.00;52688.63;5122637;27;19991;-63
2021/12/11 04:17:43;;;;;;;;;;;;;;;-144.99;100.00;52680.47;5112499;28;19991;-63
2021/12/11 04:20:13;;;;;;;;;;;;;;;-144.99;100.00;52674.34;5122957;27;20359;-63
2021/12/11 04:22:40;;;;;;;;;;;;;;;-144.99;100.00;52664.16;5117947;27;19972;-63
2021/12/11 04:25:08;;;;;;;;;;;;;;;-144.99;100.00;52656.00;5124034;27;19988;-63
2021/12/11 04:27:34;;;;;;;;;;;;;;;-144.99;100.00;52676.38;5130122;27;20456;-63
2021/12/11 04:30:03;;;;;;;;;;;;;;;-144.99;100.00;52647.84;5112778;28;19984;-63
2021/12/11 04:32:32;;;;;;;;;;;;;;;-144.99;100.00;52647.84;5115828;27;20034;-62
2021/12/11 04:34:59;;;;;;;;;;;;;;;-144.99;100.00;52682.50;5122478;27;19992;-62
2021/12/11 04:37:29;;;;;;;;;;;;;;;-144.99;100.00;52676.38;5125638;27;19976;-63
2021/12/11 04:40:00;;;;;;;;;;;;;;;-144.99;100.00;52698.81;5111816;28;19984;-65
2021/12/11 04:42:37;;;;;;;;;;;;;;;-144.99;100.00;52635.63;5115236;27;19972;-64
2021/12/11 04:45:04;;;;;;;;;;;;;;;-144.99;100.00;52666.19;5128892;27;20093;-69
2021/12/11 04:47:36;;;;;;;;;;;;;;;-144.99;100.00;52664.16;5112298;27;19996;-64
2021/12/11 04:50:08;;;;;;;;;;;;;;;-144.99;100.00;52629.50;5111662;28;19980;-64
2021/12/11 04:52:48;;;;;;;;;;;;;;;-144.99;100.00;52696.78;5112315;27;19972;-66
2021/12/11 04:55:27;;;;;;;;;;;;;;;-144.99;100.00;52631.53;5123435;27;19992;-64
2021/12/11 04:58:05;;;;;;;;;;;;;;;-144.99;100.00;52684.53;5112345;28;20433;-64
2021/12/11 05:00:44;;;;;;;;;;;;;;;-144.99;100.00;52676.38;5112221;28;19980;-63
2021/12/11 05:06:03;;;;;;;;;;;;;;;-144.99;100.00;52651.94;5077640;28;19996;-63
2021/12/11 05:09:02;;;;;;;;;;;;;;;-144.99;100.00;52662.13;5111305;28;19984;-62
2021/12/11 05:11:35;;;;;;;;;;;;;;;-144.99;100.00;52692.69;5111343;28;20881;-63
2021/12/11 05:14:02;;;;;;;;;;;;;;;-144.99;100.00;52713.09;5121477;27;20462;-65
2021/12/11 05:16:28;;;;;;;;;;;;;;;-144.99;100.00;52635.63;5121637;27;19983;-64
2021/12/11 05:18:55;;;;;;;;;;;;;;;-144.99;100.00;52684.53;5110904;28;20341;-64
2021/12/11 05:21:21;;;;;;;;;;;;;;;-144.99;100.00;52660.09;5124652;27;19976;-68
2021/12/11 05:23:51;;;;;;;;;;;;;;;-144.99;100.00;52696.78;5111062;28;19998;-63
2021/12/11 05:26:18;;;;;;;;;;;;;;;-144.99;100.00;52664.16;5124913;27;19991;-63
2021/12/11 05:28:45;;;;;;;;;;;;;;;-144.99;100.00;52637.66;5128660;27;20337;-64
2021/12/11 05:31:12;;;;;;;;;;;;;;;-144.99;100.00;52668.22;5112617;27;19980;-64
2021/12/11 05:33:39;;;;;;;;;;;;;;;-144.99;100.00;52696.78;5111112;28;20039;-65
2021/12/11 05:36:07;;;;;;;;;;;;;;;-144.99;100.00;52704.94;5120058;28;19972;-64
2021/12/11 05:38:37;;;;;;;;;;;;;;;-144.99;100.00;52700.84;5131348;27;19975;-64
2021/12/11 05:41:06;;;;;;;;;;;;;;;-144.99;100.00;52717.16;5132418;27;19991;-64
2021/12/11 05:43:33;;;;;;;;;;;;;;;-144.99;100.00;52711.03;5117462;27;19992;-63
2021/12/11 05:46:00;;;;;;;;;;;;;;;-144.99;100.00;52721.22;5116857;28;20000;-64
2021/12/11 05:48:26;;;;;;;;;;;;;;;-144.99;100.00;52696.78;5131085;27;19984;-64
2021/12/11 05:50:54;;;;;;;;;;;;;;;-144.99;100.00;52700.84;5112848;28;19987;-66
2021/12/11 05:53:21;;;;;;;;;;;;;;;-144.99;100.00;52668.22;5122427;27;19992;-71
2021/12/11 05:55:48;;;;;;;;;;;;;;;-144.99;100.00;52674.34;5129012;28;19978;-65
2021/12/11 05:58:25;;;;;;;;;;;;;;;-144.99;100.00;52668.22;5145388;27;20469;-65
2021/12/11 06:00:52;;;;;;;;;;;;;;;-144.99;100.00;52668.22;5143013;27;20008;-65
2021/12/11 06:03:20;;;;;;;;;;;;;;;-144.99;100.00;52647.84;5131667;27;20063;-65
2021/12/11 06:05:47;;;;;;;;;;;;;;;-144.99;100.00;52692.69;5132577;27;19976;-65
2021/12/11 06:08:13;;;;;;;;;;;;;;;-144.99;100.00;52676.38;5117319;27;20025;-65
2021/12/11 06:10:41;;;;;;;;;;;;;;;-144.99;100.00;52688.63;5115185;28;20071;-63
2021/12/11 06:13:09;;;;;;;;;;;;;;;-144.99;100.00;52700.84;5115064;28;20424;-63
2021/12/11 06:15:36;;;;;;;;;;;;;;;-144.99;100.00;52684.53;5126051;27;19972;-63
2021/12/11 06:18:03;;;;;;;;;;;;;;;-144.99;100.00;52684.53;5129157;27;20003;-63
2021/12/11 06:20:30;;;;;;;;;;;;;;;-144.99;100.00;52684.53;5126468;27;20002;-63
2021/12/11 06:22:57;;;;;;;;;;;;;;;-144.99;100.00;52668.22;5115726;27;20000;-63
2021/12/11 06:25:25;;;;;;;;;;;;;;;-144.99;100.00;52694.72;5120288;27;19972;-63
2021/12/11 06:27:51;;;;;;;;;;;;;;;-144.99;100.00;52692.69;5130210;27;19988;-62
2021/12/11 06:30:18;;;;;;;;;;;;;;;-144.99;100.00;52692.69;5114462;28;20437;-63
2021/12/11 06:32:47;;;;;;;;;;;;;;;-144.99;100.00;52704.94;5115189;27;19980;-63
2021/12/11 06:35:25;;;;;;;;;;;;;;;-144.99;100.00;52700.84;5128422;27;19988;-63
2021/12/11 06:37:51;;;;;;;;;;;;;;;-144.99;100.00;52692.69;5125512;27;20416;-63
2021/12/11 06:40:18;;;;;;;;;;;;;;;-144.99;100.00;52700.84;5114189;28;19981;-66
2021/12/11 06:42:44;;;;;;;;;;;;;;;-144.99;100.00;52690.66;5114844;27;19995;-66
2021/12/11 06:45:11;;;;;;;;;;;;;;;-144.99;100.00;52649.88;5131828;27;20502;-66
2021/12/11 06:47:38;;;;;;;;;;;;;;;-144.99;100.00;52653.97;5114701;28;20003;-66
2021/12/11 06:52:43;;;;;;;;;;;;;;;-144.99;100.00;52631.53;5085723;28;19988;-61
2021/12/11 06:55:10;;;;;;;;;;;;;;;-144.99;100.00;52672.31;5089113;28;19988;-61
2021/12/11 06:57:36;;;;;;;;;;;;;;;-144.99;100.00;52662.13;5092790;28;20529;-61
2021/12/11 07:00:04;;;;;;;;;;;;;;;-144.99;100.00;52682.50;5092576;28;19981;-62
2021/12/11 07:02:30;;;;;;;;;;;;;;;-144.99;100.00;52688.63;5092652;28;20004;-60
2021/12/11 07:04:57;;;;;;;;;;;;;;;-144.99;100.00;52721.22;5087904;28;19989;-61
2021/12/11 07:07:27;;;;;;;;;;;;;;;-144.99;100.00;52660.09;5092503;28;19999;-62
2021/12/11 07:09:55;;;;;;;;;;;;;;;-144.99;100.00;52696.78;5092805;28;20440;-63
2021/12/11 07:12:21;;;;;;;;;;;;;;;-144.99;100.00;52672.31;5093643;28;19972;-62
2021/12/11 07:14:48;;;;;;;;;;;;;;;-144.99;100.00;52674.34;5087549;28;20372;-62
2021/12/11 07:17:15;;;;;;;;;;;;;;;-144.99;100.00;52676.38;5093129;28;19976;-62
2021/12/11 07:19:42;;;;;;;;;;;;;;;-144.99;100.00;52684.53;5092419;28;19972;-61
2021/12/11 07:22:08;;;;;;;;;;;;;;;-144.99;100.00;52668.22;5093770;28;20083;-60
2021/12/11 07:24:45;;;;;;;;;;;;;;;-144.99;100.00;52676.38;5091221;28;19995;-61
2021/12/11 07:27:13;;;;;;;;;;;;;;;-144.99;100.00;52715.13;5085683;28;19988;-63
2021/12/11 07:29:40;;;;;;;;;;;;;;;-144.99;100.00;52680.47;5093210;28;19992;-61
2021/12/11 07:32:07;;;;;;;;;;;;;;;-144.99;100.00;52680.47;5092900;28;19985;-60
2021/12/11 07:34:33;;;;;;;;;;;;;;;-144.99;100.00;52700.84;5081655;28;20079;-61
2021/12/11 07:37:02;;;;;;;;;;;;;;;-144.99;100.00;52664.16;5091928;28;19976;-65
2021/12/11 07:39:28;;;;;;;;;;;;;;;-144.99;100.00;52709.00;5092264;28;19980;-64
2021/12/11 07:41:55;;;;;;;;;;;;;;;-144.99;100.00;52668.22;5091867;28;20611;-63
2021/12/11 07:44:23;;;;;;;;;;;;;;;-144.99;100.00;52660.09;5076243;28;20004;-64
2021/12/11 07:46:51;;;;;;;;;;;;;;;-144.99;100.00;52656.00;5088455;28;19996;-65
2021/12/11 07:49:17;;;;;;;;;;;;;;;-144.99;100.00;52672.31;5092643;28;19991;-65
2021/12/11 07:51:44;;;;;;;;;;;;;;;-144.99;100.00;52688.63;5092617;28;19984;-64
2021/12/11 07:54:10;;;;;;;;;;;;;;;-144.99;100.00;52639.69;5091643;28;19997;-65
2021/12/11 07:56:38;;;;;;;;;;;;;;;-144.99;100.00;52668.22;5087930;28;19999;-64
2021/12/11 07:59:06;;;;;;;;;;;;;;;-144.99;100.00;52668.22;5092487;28;20208;-63
2021/12/11 08:01:36;;;;;;;;;;;;;;;-144.99;100.00;52656.00;5085765;28;20636;-64
2021/12/11 08:04:04;;;;;;;;;;;;;;;-144.99;100.00;52721.22;5083396;28;20007;-64
2021/12/11 08:06:31;;;;;;;;;;;;;;;-144.99;100.00;52680.47;5092553;28;19987;-64
2021/12/11 08:08:57;;;;;;;;;;;;;;;-144.99;100.00;52680.47;5092517;28;19981;-64
2021/12/11 08:11:28;;;;;;;;;;;;;;;-144.99;100.00;52696.78;5092442;28;19992;-65
2021/12/11 08:13:55;;;;;;;;;;;;;;;-144.99;100.00;52692.69;5089922;28;19992;-66
2021/12/11 08:16:25;;;;;;;;;;;;;;;-144.99;100.00;52668.22;5092440;28;19976;-65
2021/12/11 08:18:53;;;;;;;;;;;;;;;-144.99;100.00;52653.97;5091111;28;20079;-66
2021/12/11 08:21:20;;;;;;;;;;;;;;;-144.99;100.00;52686.59;5092238;28;20201;-64
2021/12/11 08:23:47;;;;;;;;;;;;;;;-144.99;100.00;52660.09;5081172;28;20486;-65
2021/12/11 08:26:16;;;;;;;;;;;;;;;-144.99;100.00;52680.47;5091408;28;20417;-66
2021/12/11 08:28:42;;;;;;;;;;;;;;;-144.99;100.00;52713.09;5091382;28;20015;-65
2021/12/11 08:31:09;;;;;;;;;;;;;;;-144.99;100.00;52664.16;5091282;28;19982;-66
2021/12/11 08:33:36;;;;;;;;;;;;;;;-144.99;100.00;52676.38;5081876;28;20028;-68
2021/12/11 08:36:04;;;;;;;;;;;;;;;-144.99;100.00;52651.94;5091122;28;19976;-70
2021/12/11 08:38:30;;;;;;;;;;;;;;;-144.99;100.00;52656.00;5091234;28;19987;-69
2021/12/11 08:40:58;;;;;;;;;;;;;;;-144.99;100.00;52656.00;5092521;28;20070;-69
2021/12/11 08:43:25;;;;;;;;;;;;;;;-144.99;100.00;52670.28;5090146;28;20007;-71
2021/12/11 08:46:03;;;;;;;;;;;;;;;-144.99;100.00;52668.22;5092598;28;19973;-68
2021/12/11 08:48:31;;;;;;;;;;;;;;;-144.99;100.00;52692.69;5092147;28;19996;-68
2021/12/11 08:51:04;;;;;;;;;;;;;;;-144.99;100.00;52676.38;5093740;28;19988;-70
2021/12/11 08:53:33;;;;;;;;;;;;;;;-144.99;100.00;52637.66;5088416;28;19993;-70
2021/12/11 08:56:00;;;;;;;;;;;;;;;-144.99;100.00;52664.16;5090491;28;19981;-69
2021/12/11 08:58:28;;;;;;;;;;;;;;;-144.99;100.00;52692.69;5091270;28;20086;-70
2021/12/11 09:00:56;;;;;;;;;;;;;;;-144.99;100.00;52684.53;5091371;28;19980;-70
2021/12/11 09:03:25;;;;;;;;;;;;;;;-144.99;100.00;52660.09;5090138;28;20154;-70
2021/12/11 09:05:53;;;;;;;;;;;;;;;-144.99;100.00;52635.63;5088260;28;19973;-69
2021/12/11 09:08:22;;;;;;;;;;;;;;;-144.99;100.00;52684.53;5090754;28;20475;-71
2021/12/11 09:10:53;;;;;;;;;;;;;;;-144.99;100.00;52660.09;5091942;28;20083;-70
2021/12/11 09:13:21;;;;;;;;;;;;;;;-144.99;100.00;52668.22;5085836;28;20019;-71
2021/12/11 09:15:50;;;;;;;;;;;;;;;-144.99;100.00;52664.16;5088579;28;20437;-69
2021/12/11 09:18:23;;;;;;;;;;;;;;;-144.99;100.00;52678.44;5086344;28;19973;-70
2021/12/11 09:20:52;;;;;;;;;;;;;;;-144.99;100.00;52647.84;5090687;28;19972;-71
2021/12/11 09:23:24;;;;;;;;;;;;;;;-144.99;100.00;52672.31;5091744;28;19996;-70
2021/12/11 09:25:54;;;;;;;;;;;;;;;-144.99;100.00;52674.34;5091024;28;20406;-71
2021/12/11 09:28:24;;;;;;;;;;;;;;;-144.99;100.00;52656.00;5088852;28;19989;-69
2021/12/11 09:30:52;;;;;;;;;;;;;;;-144.99;100.00;52660.09;5088593;28;20119;-70
2021/12/11 09:33:20;;;;;;;;;;;;;;;-144.99;100.00;52649.88;5084467;28;20018;-69
2021/12/11 09:35:48;;;;;;;;;;;;;;;-144.99;100.00;52674.34;5087435;28;19977;-69
2021/12/11 09:38:18;;;;;;;;;;;;;;;-144.99;100.00;52696.78;5089713;28;19986;-69
2021/12/11 09:40:54;;;;;;;;;;;;;;;-144.99;100.00;52688.63;5088748;28;19979;-69
2021/12/11 09:43:37;;;;;;;;;;;;;;;-144.99;100.00;52651.94;5090291;28;19996;-69
2021/12/11 09:46:04;;;;;;;;;;;;;;;-144.99;100.00;52651.94;5090582;28;19987;-69
2021/12/11 09:48:31;;;;;;;;;;;;;;;-144.99;100.00;52688.63;5089962;28;19924;-69
2021/12/11 09:51:02;;;;;;;;;;;;;;;-144.99;100.00;52660.09;5088544;28;20063;-70
2021/12/11 09:53:30;;;;;;;;;;;;;;;-144.99;100.00;52668.22;5080255;28;19999;-70
2021/12/11 09:55:57;;;;;;;;;;;;;;;-144.99;100.00;52639.69;5090433;28;20441;-68
2021/12/11 09:58:26;;;;;;;;;;;;;;;-144.99;100.00;52627.47;5090138;28;20009;-69
2021/12/11 10:00:57;;;;;;;;;;;;;;;-144.99;100.00;52660.09;5084694;28;19973;-70
2021/12/11 10:03:25;;;;;;;;;;;;;;;-144.99;100.00;52658.03;5089423;28;19988;-69
2021/12/11 10:05:56;;;;;;;;;;;;;;;-144.99;100.00;52668.22;5089413;28;19981;-70
2021/12/11 10:08:28;;;;;;;;;;;;;;;-144.99;100.00;52625.44;5089631;28;20059;-70
2021/12/11 10:10:58;;;;;;;;;;;;;;;-144.99;100.00;52668.22;5088751;28;19981;-69
2021/12/11 10:13:25;;;;;;;;;;;;;;;-144.99;100.00;52651.94;5089816;28;19989;-69
2021/12/11 10:15:52;;;;;;;;;;;;;;;-144.99;100.00;52688.63;5090333;28;20035;-69
2021/12/11 10:18:21;;;;;;;;;;;;;;;-144.99;100.00;52653.97;5093202;28;20012;-70
2021/12/11 10:20:49;;;;;;;;;;;;;;;-144.99;100.00;52704.94;5091985;28;19981;-69
2021/12/11 10:23:17;;;;;;;;;;;;;;;-144.99;100.00;52676.38;5093600;28;20453;-70
2021/12/11 10:25:44;;;;;;;;;;;;;;;-144.99;100.00;52717.16;5092819;28;19972;-68
2021/12/11 10:28:12;;;;;;;;;;;;;;;-144.99;100.00;52670.28;5089864;28;19996;-69
2021/12/11 10:30:41;;;;;;;;;;;;;;;-144.99;100.00;52668.22;4380142;28;10000742;-69
2021/12/11 10:33:09;;;;;;;;;;;;;;;-144.99;100.00;52631.53;5085386;28;20361;-69
2021/12/11 10:35:38;;;;;;;;;;;;;;;-144.99;100.00;52658.03;5083348;28;19988;-69
2021/12/11 10:38:06;;;;;;;;;;;;;;;-144.99;100.00;52664.16;5087252;28;19979;-70
2021/12/11 10:40:35;;;;;;;;;;;;;;;-144.99;100.00;52631.53;5079808;28;19977;-69
2021/12/11 10:43:04;;;;;;;;;;;;;;;-144.99;100.00;52662.13;5089267;28;19987;-69
2021/12/11 10:45:31;;;;;;;;;;;;;;;-144.99;100.00;52684.53;5090125;28;19980;-69
2021/12/11 10:47:59;;;;;;;;;;;;;;;-144.99;100.00;52700.84;5090041;28;20011;-69
2021/12/11 10:50:28;;;;;;;;;;;;;;;-144.99;100.00;52668.22;5084264;28;19977;-70
2021/12/11 10:52:57;;;;;;;;;;;;;;;-144.99;100.00;52647.84;5081010;28;20774;-69
2021/12/11 10:55:28;;;;;;;;;;;;;;;-144.99;100.00;52623.38;5087325;28;19988;-69
2021/12/11 10:57:56;;;;;;;;;;;;;;;-144.99;100.00;52668.22;5086497;28;19984;-68
2021/12/11 11:00:25;;;;;;;;;;;;;;;-144.99;100.00;52627.47;5086947;28;21180;-68
2021/12/11 11:02:51;;;;;;;;;;;;;;;-144.99;100.00;52680.47;5085312;28;20023;-69
2021/12/11 11:05:20;;;;;;;;;;;;;;;-144.99;100.00;52647.84;5078892;28;19981;-69
2021/12/11 11:07:47;;;;;;;;;;;;;;;-144.99;100.00;52692.69;5087122;28;19996;-69
2021/12/11 11:10:16;;;;;;;;;;;;;;;-144.99;100.00;52635.63;5084343;28;19973;-69
2021/12/11 11:12:43;;;;;;;;;;;;;;;-144.99;100.00;52635.63;5085389;28;20023;-69
2021/12/11 11:15:10;;;;;;;;;;;;;;;-144.99;100.00;52647.84;5085035;28;19996;-68
2021/12/11 11:17:37;;;;;;;;;;;;;;;-144.99;100.00;52647.84;5089342;28;19988;-70
2021/12/11 11:20:05;;;;;;;;;;;;;;;-144.99;100.00;52617.28;5088366;28;19981;-70
2021/12/11 11:22:33;;;;;;;;;;;;;;;-144.99;99.57;52647.84;5083329;28;20429;-68
2021/12/11 11:25:04;;;;;;;;;;;;;;;-144.99;98.88;52676.38;5086257;28;19996;-70
2021/12/11 11:27:32;;;;;;;;;;;;;;;-144.99;97.67;52651.94;5089272;28;21059;-69
2021/12/11 11:29:58;;;;;;;;;;;;;;;-144.99;96.65;52656.00;5088481;28;19996;-70
2021/12/11 11:32:31;;;;;;;;;;;;;;;-144.99;96.03;52656.00;5091004;28;20023;-70
2021/12/11 11:34:59;;;;;;;;;;;;;;;-144.99;95.05;52680.47;5089837;28;20077;-70
2021/12/11 11:37:26;;;;;;;;;;;;;;;-144.99;95.09;52668.22;5091651;28;20139;-70
2021/12/11 11:39:52;;;;;;;;;;;;;;;-144.99;94.44;52621.34;5084886;28;19988;-68
2021/12/11 11:42:20;;;;;;;;;;;;;;;-144.99;94.30;52631.53;5090096;28;19976;-69
2021/12/11 11:44:49;;;;;;;;;;;;;;;-144.99;94.13;52660.09;5083869;28;19988;-69
2021/12/11 11:47:16;;;;;;;;;;;;;;;-144.99;93.76;52629.50;5091130;28;20075;-68
2021/12/11 11:49:43;;;;;;;;;;;;;;;-144.99;93.76;52668.22;5091804;28;19988;-70
2021/12/11 11:52:12;;;;;;;;;;;;;;;-144.99;93.58;52692.69;5085479;28;20529;-69
2021/12/11 11:54:40;;;;;;;;;;;;;;;-144.99;93.68;52676.38;5090968;28;20469;-69
2021/12/11 11:57:08;;;;;;;;;;;;;;;-144.99;93.44;52668.22;5089004;28;19978;-69
2021/12/11 11:59:35;;;;;;;;;;;;;;;-144.99;92.67;52617.28;5091371;28;19972;-69
2021/12/11 12:02:05;;;;;;;;;;;;;;;-144.99;92.46;52629.50;5086341;28;19977;-69
2021/12/11 12:04:33;;;;;;;;;;;;;;;-144.99;91.63;52656.00;5086502;28;19988;-69
2021/12/11 12:07:02;;;;;;;;;;;;;;;-144.99;91.23;52676.38;5091791;28;19984;-69
2021/12/11 12:09:29;;;;;;;;;;;;;;;-144.99;91.46;52694.72;5083392;28;20380;-69
2021/12/11 12:11:57;;;;;;;;;;;;;;;-144.99;90.81;52639.69;5091540;28;20352;-69
2021/12/11 12:14:26;;;;;;;;;;;;;;;-144.99;91.04;52676.38;5090794;28;19992;-69
2021/12/11 12:16:52;;;;;;;;;;;;;;;-144.99;90.77;52668.22;5090895;28;19990;-69
2021/12/11 12:19:21;;;;;;;;;;;;;;;-144.99;90.30;52664.16;5091590;28;20091;-69
2021/12/11 12:21:49;;;;;;;;;;;;;;;-144.99;89.96;52666.19;5085192;28;19999;-69
2021/12/11 12:24:17;;;;;;;;;;;;;;;-144.99;89.91;52684.53;5089522;28;20027;-70
2021/12/11 12:26:44;;;;;;;;;;;;;;;-144.99;90.42;52668.22;5092350;28;20031;-68
2021/12/11 12:29:13;;;;;;;;;;;;;;;-144.99;90.16;52676.38;5092505;28;19998;-70
2021/12/11 12:31:40;;;;;;;;;;;;;;;-144.99;89.85;52684.53;5089696;28;19973;-69